sensor_id;sensor_type;location;lat;lon;timestamp;pressure;altitude;pressure_sealevel;temperature;humidity
52032;BME280;38044;45.148;39.604;2023-03-19T00:00:07;101279.31;;;7.74;78.52
52032;BME280;38044;45.148;39.604;2023-03-19T00:02:34;101286.25;;;7.75;78.29
52032;BME280;38044;45.148;39.604;2023-03-19T00:05:01;101222.28;;;7.41;78.25
52032;BME280;38044;45.148;39.604;2023-03-19T00:07:27;101260.75;;;7.62;78.14
52032;BME280;38044;45.148;39.604;2023-03-19T00:09:53;101213.16;;;7.37;78.00
52032;BME280;38044;45.148;39.604;2023-03-19T00:12:19;101256.69;;;7.60;78.00
52032;BME280;38044;45.148;39.604;2023-03-19T00:14:45;101272.03;;;7.70;78.02
52032;BME280;38044;45.148;39.604;2023-03-19T00:17:11;101121.59;;;6.71;77.86
52032;BME280;38044;45.148;39.604;2023-03-19T00:19:37;101108.19;;;6.66;77.92
52032;BME280;38044;45.148;39.604;2023-03-19T00:22:03;101238.38;;;7.47;78.03
52032;BME280;38044;45.148;39.604;2023-03-19T00:24:29;101252.41;;;7.59;78.08
52032;BME280;38044;45.148;39.604;2023-03-19T00:26:55;101236.31;;;7.54;77.87
52032;BME280;38044;45.148;39.604;2023-03-19T00:29:21;101117.91;;;6.77;78.02
52032;BME280;38044;45.148;39.604;2023-03-19T00:31:48;101217.81;;;7.52;77.83
52032;BME280;38044;45.148;39.604;2023-03-19T00:34:14;101272.41;;;7.83;78.05
52032;BME280;38044;45.148;39.604;2023-03-19T00:36:44;101272.97;;;7.85;77.59
52032;BME280;38044;45.148;39.604;2023-03-19T00:39:10;101239.66;;;7.71;77.62
52032;BME280;38044;45.148;39.604;2023-03-19T00:41:36;101122.00;;;6.85;77.65
52032;BME280;38044;45.148;39.604;2023-03-19T00:44:02;101260.63;;;7.79;77.72
52032;BME280;38044;45.148;39.604;2023-03-19T00:46:28;101243.31;;;7.60;77.69
52032;BME280;38044;45.148;39.604;2023-03-19T00:48:54;101267.00;;;7.73;77.83
52032;BME280;38044;45.148;39.604;2023-03-19T00:51:21;101276.06;;;7.72;77.63
52032;BME280;38044;45.148;39.604;2023-03-19T00:53:48;101248.56;;;7.50;77.63
52032;BME280;38044;45.148;39.604;2023-03-19T00:56:14;101165.69;;;6.95;77.59
52032;BME280;38044;45.148;39.604;2023-03-19T00:58:43;101281.41;;;7.67;77.59
52032;BME280;38044;45.148;39.604;2023-03-19T01:01:11;101250.28;;;7.61;77.98
52032;BME280;38044;45.148;39.604;2023-03-19T01:03:37;101155.31;;;6.99;77.87
52032;BME280;38044;45.148;39.604;2023-03-19T01:06:03;101255.38;;;7.62;77.63
52032;BME280;38044;45.148;39.604;2023-03-19T01:08:29;101259.31;;;7.55;78.00
52032;BME280;38044;45.148;39.604;2023-03-19T01:10:55;101188.31;;;7.15;78.04
52032;BME280;38044;45.148;39.604;2023-03-19T01:13:21;101253.44;;;7.53;78.23
52032;BME280;38044;45.148;39.604;2023-03-19T01:15:51;101250.66;;;7.42;78.32
52032;BME280;38044;45.148;39.604;2023-03-19T01:18:17;101132.28;;;6.71;78.13
52032;BME280;38044;45.148;39.604;2023-03-19T01:20:43;101253.69;;;7.51;78.56
52032;BME280;38044;45.148;39.604;2023-03-19T01:23:09;101113.47;;;6.61;78.22
52032;BME280;38044;45.148;39.604;2023-03-19T01:25:35;101170.22;;;6.95;78.31
52032;BME280;38044;45.148;39.604;2023-03-19T01:28:01;101247.75;;;7.44;78.08
52032;BME280;38044;45.148;39.604;2023-03-19T01:30:27;101222.19;;;7.31;77.98
52032;BME280;38044;45.148;39.604;2023-03-19T01:32:53;101262.25;;;7.53;78.18
52032;BME280;38044;45.148;39.604;2023-03-19T01:35:19;101264.66;;;7.55;78.60
52032;BME280;38044;45.148;39.604;2023-03-19T01:37:45;101113.53;;;6.66;78.27
52032;BME280;38044;45.148;39.604;2023-03-19T01:40:12;101260.94;;;7.56;78.11
52032;BME280;38044;45.148;39.604;2023-03-19T01:43:16;101243.47;;;7.48;78.24
52032;BME280;38044;45.148;39.604;2023-03-19T01:45:42;101252.94;;;7.61;78.00
52032;BME280;38044;45.148;39.604;2023-03-19T01:48:19;101102.25;;;6.59;78.12
52032;BME280;38044;45.148;39.604;2023-03-19T01:50:48;101245.81;;;7.39;78.44
52032;BME280;38044;45.148;39.604;2023-03-19T01:53:23;101227.53;;;7.31;78.35
52032;BME280;38044;45.148;39.604;2023-03-19T01:55:53;101253.09;;;7.44;78.70
52032;BME280;38044;45.148;39.604;2023-03-19T01:58:20;101074.19;;;6.34;78.89
52032;BME280;38044;45.148;39.604;2023-03-19T02:00:46;101095.16;;;6.47;79.09
52032;BME280;38044;45.148;39.604;2023-03-19T02:03:12;101239.91;;;7.37;78.96
52032;BME280;38044;45.148;39.604;2023-03-19T02:05:40;101183.63;;;7.00;78.72
52032;BME280;38044;45.148;39.604;2023-03-19T02:08:10;101228.53;;;7.25;78.84
52032;BME280;38044;45.148;39.604;2023-03-19T02:10:37;101195.75;;;7.08;79.02
52032;BME280;38044;45.148;39.604;2023-03-19T02:13:03;101250.00;;;7.30;78.90
52032;BME280;38044;45.148;39.604;2023-03-19T02:15:29;101089.41;;;6.34;79.05
52032;BME280;38044;45.148;39.604;2023-03-19T02:17:55;101229.84;;;7.22;79.07
52032;BME280;38044;45.148;39.604;2023-03-19T02:20:25;101226.38;;;7.22;78.91
52032;BME280;38044;45.148;39.604;2023-03-19T02:23:44;101131.06;;;6.57;79.07
52032;BME280;38044;45.148;39.604;2023-03-19T02:28:15;101223.91;;;7.15;78.71
52032;BME280;38044;45.148;39.604;2023-03-19T02:30:44;101121.44;;;6.56;78.64
52032;BME280;38044;45.148;39.604;2023-03-19T02:33:14;101250.53;;;7.32;79.05
52032;BME280;38044;45.148;39.604;2023-03-19T02:35:44;101249.50;;;7.33;79.15
52032;BME280;38044;45.148;39.604;2023-03-19T02:38:12;101235.16;;;7.17;79.00
52032;BME280;38044;45.148;39.604;2023-03-19T02:40:50;101105.22;;;6.40;79.19
52032;BME280;38044;45.148;39.604;2023-03-19T02:43:18;101255.59;;;7.29;79.24
52032;BME280;38044;45.148;39.604;2023-03-19T02:45:44;101151.94;;;6.60;78.97
52032;BME280;38044;45.148;39.604;2023-03-19T02:48:10;101268.50;;;7.37;79.06
52032;BME280;38044;45.148;39.604;2023-03-19T02:50:36;101247.78;;;7.22;79.11
52032;BME280;38044;45.148;39.604;2023-03-19T02:53:02;101269.63;;;7.41;78.95
52032;BME280;38044;45.148;39.604;2023-03-19T02:55:27;101268.00;;;7.40;79.04
52032;BME280;38044;45.148;39.604;2023-03-19T02:57:53;101221.69;;;7.07;78.75
52032;BME280;38044;45.148;39.604;2023-03-19T03:00:19;101252.50;;;7.15;79.14
52032;BME280;38044;45.148;39.604;2023-03-19T03:02:46;101241.63;;;7.21;78.90
52032;BME280;38044;45.148;39.604;2023-03-19T03:05:12;101132.63;;;6.52;78.93
52032;BME280;38044;45.148;39.604;2023-03-19T03:07:38;101279.78;;;7.39;79.13
52032;BME280;38044;45.148;39.604;2023-03-19T03:10:06;101265.47;;;7.28;79.19
52032;BME280;38044;45.148;39.604;2023-03-19T03:12:32;101250.38;;;7.17;79.10
52032;BME280;38044;45.148;39.604;2023-03-19T03:14:58;101288.91;;;7.43;78.91
52032;BME280;38044;45.148;39.604;2023-03-19T03:17:25;101134.22;;;6.53;78.73
52032;BME280;38044;45.148;39.604;2023-03-19T03:19:51;101246.19;;;7.26;78.92
52032;BME280;38044;45.148;39.604;2023-03-19T03:22:17;101272.09;;;7.48;78.58
52032;BME280;38044;45.148;39.604;2023-03-19T03:24:43;101281.16;;;7.47;78.51
52032;BME280;38044;45.148;39.604;2023-03-19T03:27:09;101281.94;;;7.42;78.53
52032;BME280;38044;45.148;39.604;2023-03-19T03:29:36;101280.31;;;7.41;78.88
52032;BME280;38044;45.148;39.604;2023-03-19T03:32:05;101252.13;;;7.28;78.64
52032;BME280;38044;45.148;39.604;2023-03-19T03:34:33;101290.84;;;7.48;78.69
52032;BME280;38044;45.148;39.604;2023-03-19T03:37:02;101246.91;;;7.16;78.60
52032;BME280;38044;45.148;39.604;2023-03-19T03:39:28;101235.59;;;7.09;78.62
52032;BME280;38044;45.148;39.604;2023-03-19T03:41:54;101292.66;;;7.42;78.83
52032;BME280;38044;45.148;39.604;2023-03-19T03:44:20;101266.00;;;7.25;78.91
52032;BME280;38044;45.148;39.604;2023-03-19T03:46:46;101127.59;;;6.34;78.43
52032;BME280;38044;45.148;39.604;2023-03-19T03:49:12;101275.13;;;7.29;78.64
52032;BME280;38044;45.148;39.604;2023-03-19T03:51:38;101296.69;;;7.44;79.03
52032;BME280;38044;45.148;39.604;2023-03-19T03:54:03;101205.09;;;6.83;78.86
52032;BME280;38044;45.148;39.604;2023-03-19T03:56:30;101283.81;;;7.41;78.94
52032;BME280;38044;45.148;39.604;2023-03-19T03:58:57;101269.81;;;7.34;78.97
52032;BME280;38044;45.148;39.604;2023-03-19T04:01:23;101234.63;;;7.20;78.75
52032;BME280;38044;45.148;39.604;2023-03-19T04:03:49;101286.00;;;7.44;78.94
52032;BME280;38044;45.148;39.604;2023-03-19T04:06:17;101273.34;;;7.40;79.20
52032;BME280;38044;45.148;39.604;2023-03-19T04:08:43;101224.66;;;7.11;78.89
52032;BME280;38044;45.148;39.604;2023-03-19T04:11:09;101147.22;;;6.67;78.89
52032;BME280;38044;45.148;39.604;2023-03-19T04:13:36;101153.97;;;6.74;78.77
52032;BME280;38044;45.148;39.604;2023-03-19T04:16:06;101295.97;;;7.54;78.85
52032;BME280;38044;45.148;39.604;2023-03-19T04:18:33;101281.16;;;7.41;78.91
52032;BME280;38044;45.148;39.604;2023-03-19T04:20:59;101289.19;;;7.47;78.65
52032;BME280;38044;45.148;39.604;2023-03-19T04:23:25;101305.38;;;7.57;79.03
52032;BME280;38044;45.148;39.604;2023-03-19T04:25:50;101270.13;;;7.38;78.85
52032;BME280;38044;45.148;39.604;2023-03-19T04:28:16;101308.09;;;7.62;78.66
52032;BME280;38044;45.148;39.604;2023-03-19T04:30:42;101312.88;;;7.60;78.31
52032;BME280;38044;45.148;39.604;2023-03-19T04:33:09;101288.69;;;7.50;78.57
52032;BME280;38044;45.148;39.604;2023-03-19T04:35:36;101302.19;;;7.60;78.50
52032;BME280;38044;45.148;39.604;2023-03-19T04:38:02;101078.84;;;6.22;78.05
52032;BME280;38044;45.148;39.604;2023-03-19T04:40:28;101295.16;;;7.54;77.99
52032;BME280;38044;45.148;39.604;2023-03-19T04:42:54;101291.44;;;7.55;78.13
52032;BME280;38044;45.148;39.604;2023-03-19T04:45:20;101315.16;;;7.73;78.04
52032;BME280;38044;45.148;39.604;2023-03-19T04:47:45;101313.53;;;7.72;78.15
52032;BME280;38044;45.148;39.604;2023-03-19T04:50:12;101208.03;;;7.09;78.13
52032;BME280;38044;45.148;39.604;2023-03-19T04:52:38;101287.72;;;7.61;77.80
52032;BME280;38044;45.148;39.604;2023-03-19T04:55:05;101331.22;;;7.73;77.73
52032;BME280;38044;45.148;39.604;2023-03-19T04:57:32;101319.75;;;7.78;77.90
52032;BME280;38044;45.148;39.604;2023-03-19T04:59:58;101244.69;;;7.35;77.89
52032;BME280;38044;45.148;39.604;2023-03-19T05:02:24;101310.34;;;7.75;77.57
52032;BME280;38044;45.148;39.604;2023-03-19T05:04:50;101314.50;;;7.88;77.91
52032;BME280;38044;45.148;39.604;2023-03-19T05:07:16;101278.50;;;7.74;77.58
52032;BME280;38044;45.148;39.604;2023-03-19T05:09:42;101191.81;;;7.15;77.61
52032;BME280;38044;45.148;39.604;2023-03-19T05:12:09;101301.69;;;7.95;77.92
52032;BME280;38044;45.148;39.604;2023-03-19T05:14:36;101286.81;;;7.77;77.59
52032;BME280;38044;45.148;39.604;2023-03-19T05:17:02;101194.34;;;7.27;77.65
52032;BME280;38044;45.148;39.604;2023-03-19T05:19:27;101141.38;;;6.97;78.07
52032;BME280;38044;45.148;39.604;2023-03-19T05:21:53;101289.94;;;7.96;78.20
52032;BME280;38044;45.148;39.604;2023-03-19T05:24:22;101307.72;;;8.12;77.66
52032;BME280;38044;45.148;39.604;2023-03-19T05:26:48;101231.03;;;7.64;77.55
52032;BME280;38044;45.148;39.604;2023-03-19T05:29:14;101276.03;;;7.99;77.64
52032;BME280;38044;45.148;39.604;2023-03-19T05:31:40;101309.88;;;8.10;77.67
52032;BME280;38044;45.148;39.604;2023-03-19T05:34:06;101296.06;;;7.92;77.75
52032;BME280;38044;45.148;39.604;2023-03-19T05:36:32;101295.50;;;7.89;78.10
52032;BME280;38044;45.148;39.604;2023-03-19T05:38:59;101290.69;;;7.92;78.03
52032;BME280;38044;45.148;39.604;2023-03-19T05:41:26;101313.88;;;8.08;77.93
52032;BME280;38044;45.148;39.604;2023-03-19T05:43:52;101170.78;;;7.24;77.99
52032;BME280;38044;45.148;39.604;2023-03-19T05:46:17;101192.81;;;7.36;78.05
52032;BME280;38044;45.148;39.604;2023-03-19T05:48:43;101160.03;;;7.19;77.79
52032;BME280;38044;45.148;39.604;2023-03-19T05:51:09;101308.56;;;8.13;77.70
52032;BME280;38044;45.148;39.604;2023-03-19T05:53:36;101255.97;;;7.70;77.95
52032;BME280;38044;45.148;39.604;2023-03-19T05:56:01;101298.03;;;8.06;77.95
52032;BME280;38044;45.148;39.604;2023-03-19T05:58:27;101311.53;;;8.17;77.91
52032;BME280;38044;45.148;39.604;2023-03-19T06:00:54;101303.25;;;8.23;77.84
52032;BME280;38044;45.148;39.604;2023-03-19T06:03:23;101284.13;;;8.04;77.71
52032;BME280;38044;45.148;39.604;2023-03-19T06:05:51;101296.88;;;8.29;77.80
52032;BME280;38044;45.148;39.604;2023-03-19T06:08:18;101183.91;;;7.58;77.69
52032;BME280;38044;45.148;39.604;2023-03-19T06:10:44;101287.19;;;8.23;78.19
52032;BME280;38044;45.148;39.604;2023-03-19T06:13:10;101269.56;;;8.27;77.57
52032;BME280;38044;45.148;39.604;2023-03-19T06:15:36;101257.72;;;8.23;77.51
52032;BME280;38044;45.148;39.604;2023-03-19T06:18:02;101274.94;;;8.32;77.71
52032;BME280;38044;45.148;39.604;2023-03-19T06:20:28;101268.19;;;8.25;77.37
52032;BME280;38044;45.148;39.604;2023-03-19T06:22:54;101262.56;;;8.21;77.27
52032;BME280;38044;45.148;39.604;2023-03-19T06:25:20;101172.25;;;7.74;77.82
52032;BME280;38044;45.148;39.604;2023-03-19T06:27:46;101126.88;;;7.52;77.39
52032;BME280;38044;45.148;39.604;2023-03-19T06:30:12;101294.97;;;8.62;77.83
52032;BME280;38044;45.148;39.604;2023-03-19T06:32:38;101245.56;;;8.43;77.46
52032;BME280;38044;45.148;39.604;2023-03-19T06:35:04;101177.59;;;8.11;77.44
52032;BME280;38044;45.148;39.604;2023-03-19T06:37:31;101259.88;;;8.59;77.25
52032;BME280;38044;45.148;39.604;2023-03-19T06:39:56;101284.34;;;8.83;77.20
52032;BME280;38044;45.148;39.604;2023-03-19T06:42:23;101214.50;;;8.42;76.93
52032;BME280;38044;45.148;39.604;2023-03-19T06:44:49;101273.56;;;8.67;77.20
52032;BME280;38044;45.148;39.604;2023-03-19T06:47:14;101285.97;;;8.84;77.10
52032;BME280;38044;45.148;39.604;2023-03-19T06:49:40;101258.81;;;8.70;76.75
52032;BME280;38044;45.148;39.604;2023-03-19T06:52:07;101289.19;;;8.86;76.50
52032;BME280;38044;45.148;39.604;2023-03-19T06:54:32;101265.28;;;8.74;76.85
52032;BME280;38044;45.148;39.604;2023-03-19T06:56:58;101274.16;;;8.79;76.91
52032;BME280;38044;45.148;39.604;2023-03-19T06:59:24;101289.78;;;8.93;76.77
52032;BME280;38044;45.148;39.604;2023-03-19T07:01:51;101270.06;;;8.67;76.96
52032;BME280;38044;45.148;39.604;2023-03-19T07:04:17;101210.97;;;8.41;76.99
52032;BME280;38044;45.148;39.604;2023-03-19T07:06:43;101288.41;;;8.85;76.82
52032;BME280;38044;45.148;39.604;2023-03-19T07:09:09;101130.38;;;8.00;76.79
52032;BME280;38044;45.148;39.604;2023-03-19T07:11:35;101249.50;;;8.83;76.62
52032;BME280;38044;45.148;39.604;2023-03-19T07:14:02;101266.75;;;9.02;76.70
52032;BME280;38044;45.148;39.604;2023-03-19T07:16:28;101092.63;;;7.97;76.33
52032;BME280;38044;45.148;39.604;2023-03-19T07:18:54;101256.56;;;9.09;76.55
52032;BME280;38044;45.148;39.604;2023-03-19T07:21:20;101267.34;;;9.24;76.40
52032;BME280;38044;45.148;39.604;2023-03-19T07:23:46;101266.31;;;9.36;76.01
52032;BME280;38044;45.148;39.604;2023-03-19T07:26:12;101100.34;;;8.41;75.95
52032;BME280;38044;45.148;39.604;2023-03-19T07:28:38;101253.41;;;9.28;75.83
52032;BME280;38044;45.148;39.604;2023-03-19T07:31:04;101247.50;;;9.41;75.99
52032;BME280;38044;45.148;39.604;2023-03-19T07:33:30;101171.53;;;8.99;75.41
52032;BME280;38044;45.148;39.604;2023-03-19T07:35:55;101236.25;;;9.44;75.00
52032;BME280;38044;45.148;39.604;2023-03-19T07:38:21;101120.28;;;8.80;75.23
52032;BME280;38044;45.148;39.604;2023-03-19T07:40:48;101263.66;;;9.92;74.88
52032;BME280;38044;45.148;39.604;2023-03-19T07:43:14;101255.06;;;10.00;74.73
52032;BME280;38044;45.148;39.604;2023-03-19T07:45:40;101149.59;;;9.54;74.08
52032;BME280;38044;45.148;39.604;2023-03-19T07:48:06;101205.94;;;10.00;73.78
52032;BME280;38044;45.148;39.604;2023-03-19T07:50:32;101194.94;;;9.96;73.57
52032;BME280;38044;45.148;39.604;2023-03-19T07:52:57;101248.59;;;10.32;73.27
52032;BME280;38044;45.148;39.604;2023-03-19T07:55:23;101225.78;;;10.09;73.42
52032;BME280;38044;45.148;39.604;2023-03-19T07:57:49;101130.50;;;9.65;73.03
52032;BME280;38044;45.148;39.604;2023-03-19T08:00:15;101267.91;;;10.49;73.45
52032;BME280;38044;45.148;39.604;2023-03-19T08:02:41;101250.69;;;10.55;73.45
52032;BME280;38044;45.148;39.604;2023-03-19T08:05:07;101260.63;;;10.70;73.16
52032;BME280;38044;45.148;39.604;2023-03-19T08:07:34;101246.88;;;10.77;73.10
52032;BME280;38044;45.148;39.604;2023-03-19T08:10:01;101207.09;;;10.74;72.40
52032;BME280;38044;45.148;39.604;2023-03-19T08:12:28;101103.00;;;10.09;71.70
52032;BME280;38044;45.148;39.604;2023-03-19T08:14:54;101232.84;;;10.85;71.58
52032;BME280;38044;45.148;39.604;2023-03-19T08:17:19;101248.09;;;11.00;71.64
52032;BME280;38044;45.148;39.604;2023-03-19T08:19:45;101262.34;;;11.00;71.56
52032;BME280;38044;45.148;39.604;2023-03-19T08:22:12;101251.59;;;11.00;71.76
52032;BME280;38044;45.148;39.604;2023-03-19T08:24:38;101233.66;;;10.80;71.83
52032;BME280;38044;45.148;39.604;2023-03-19T08:27:04;101137.09;;;10.29;71.75
52032;BME280;38044;45.148;39.604;2023-03-19T08:29:30;101253.13;;;11.17;71.49
52032;BME280;38044;45.148;39.604;2023-03-19T08:31:56;101249.88;;;11.25;71.16
52032;BME280;38044;45.148;39.604;2023-03-19T08:34:23;101127.59;;;10.52;71.40
52032;BME280;38044;45.148;39.604;2023-03-19T08:36:49;101261.13;;;11.27;71.06
52032;BME280;38044;45.148;39.604;2023-03-19T08:39:15;101151.69;;;10.73;71.02
52032;BME280;38044;45.148;39.604;2023-03-19T08:41:41;101226.03;;;11.47;70.69
52032;BME280;38044;45.148;39.604;2023-03-19T08:44:06;101220.84;;;11.56;70.18
52032;BME280;38044;45.148;39.604;2023-03-19T08:46:32;101251.56;;;11.89;70.35
52032;BME280;38044;45.148;39.604;2023-03-19T08:48:59;101246.53;;;12.12;69.84
52032;BME280;38044;45.148;39.604;2023-03-19T08:51:25;101155.47;;;11.80;69.40
52032;BME280;38044;45.148;39.604;2023-03-19T08:53:52;101151.19;;;12.08;68.28
52032;BME280;38044;45.148;39.604;2023-03-19T08:56:19;101099.56;;;12.20;66.45
52032;BME280;38044;45.148;39.604;2023-03-19T08:58:45;101209.97;;;12.97;66.16
52032;BME280;38044;45.148;39.604;2023-03-19T09:01:12;101239.13;;;12.95;66.84
52032;BME280;38044;45.148;39.604;2023-03-19T09:03:40;101249.06;;;13.18;66.49
52032;BME280;38044;45.148;39.604;2023-03-19T09:06:08;101139.41;;;12.66;66.58
52032;BME280;38044;45.148;39.604;2023-03-19T09:08:35;101227.34;;;13.28;66.50
52032;BME280;38044;45.148;39.604;2023-03-19T09:11:02;101255.38;;;13.33;65.70
52032;BME280;38044;45.148;39.604;2023-03-19T09:13:28;101254.50;;;13.37;66.00
52032;BME280;38044;45.148;39.604;2023-03-19T09:15:54;101233.47;;;13.34;65.18
52032;BME280;38044;45.148;39.604;2023-03-19T09:18:20;101249.50;;;13.44;65.67
52032;BME280;38044;45.148;39.604;2023-03-19T09:20:48;101219.47;;;13.51;65.68
52032;BME280;38044;45.148;39.604;2023-03-19T09:23:14;101212.94;;;13.85;65.00
52032;BME280;38044;45.148;39.604;2023-03-19T09:25:40;101140.56;;;13.82;64.07
52032;BME280;38044;45.148;39.604;2023-03-19T09:28:06;101221.19;;;14.54;63.18
52032;BME280;38044;45.148;39.604;2023-03-19T09:30:33;101230.88;;;14.69;62.35
52032;BME280;38044;45.148;39.604;2023-03-19T09:32:59;101112.78;;;14.23;62.43
52032;BME280;38044;45.148;39.604;2023-03-19T09:35:25;101147.09;;;14.63;62.05
52032;BME280;38044;45.148;39.604;2023-03-19T09:37:58;101166.94;;;15.54;61.53
52032;BME280;38044;45.148;39.604;2023-03-19T09:40:42;101221.56;;;15.92;59.85
52032;BME280;38044;45.148;39.604;2023-03-19T09:46:20;101172.25;;;15.90;59.88
52032;BME280;38044;45.148;39.604;2023-03-19T09:48:53;101178.25;;;15.56;60.39
52032;BME280;38044;45.148;39.604;2023-03-19T09:52:26;101191.22;;;15.37;60.82
52032;BME280;38044;45.148;39.604;2023-03-19T09:54:58;101184.28;;;15.08;60.99
52032;BME280;38044;45.148;39.604;2023-03-19T09:57:20;101091.72;;;14.33;61.67
52032;BME280;38044;45.148;39.604;2023-03-19T09:59:46;101189.53;;;14.91;61.60
52032;BME280;38044;45.148;39.604;2023-03-19T10:02:41;101205.47;;;14.92;62.02
52032;BME280;38044;45.148;39.604;2023-03-19T10:08:18;101203.59;;;14.51;63.59
52032;BME280;38044;45.148;39.604;2023-03-19T10:11:05;101165.75;;;14.37;63.30
52032;BME280;38044;45.148;39.604;2023-03-19T10:16:26;101163.03;;;14.37;63.06
52032;BME280;38044;45.148;39.604;2023-03-19T10:18:57;101181.78;;;14.61;62.98
52032;BME280;38044;45.148;39.604;2023-03-19T10:24:05;101195.19;;;14.39;63.42
52032;BME280;38044;45.148;39.604;2023-03-19T10:26:36;101017.75;;;13.33;63.21
52032;BME280;38044;45.148;39.604;2023-03-19T10:29:20;101189.50;;;15.04;62.79
52032;BME280;38044;45.148;39.604;2023-03-19T10:34:31;101138.06;;;15.27;62.02
52032;BME280;38044;45.148;39.604;2023-03-19T10:37:11;101151.09;;;15.25;62.37
52032;BME280;38044;45.148;39.604;2023-03-19T10:39:41;101050.00;;;14.84;62.22
52032;BME280;38044;45.148;39.604;2023-03-19T10:45:25;101041.88;;;14.84;61.44
52032;BME280;38044;45.148;39.604;2023-03-19T10:47:52;101159.72;;;15.27;61.61
52032;BME280;38044;45.148;39.604;2023-03-19T10:50:48;101150.50;;;15.28;62.32
52032;BME280;38044;45.148;39.604;2023-03-19T10:56:04;101105.19;;;14.75;62.98
52032;BME280;38044;45.148;39.604;2023-03-19T10:58:32;101139.75;;;14.78;63.72
52032;BME280;38044;45.148;39.604;2023-03-19T11:01:08;101133.19;;;14.93;63.83
52032;BME280;38044;45.148;39.604;2023-03-19T11:06:25;101136.66;;;14.71;64.50
52032;BME280;38044;45.148;39.604;2023-03-19T11:08:57;101122.84;;;14.72;64.52
52032;BME280;38044;45.148;39.604;2023-03-19T11:14:12;101013.38;;;13.92;64.17
52032;BME280;38044;45.148;39.604;2023-03-19T11:16:48;101114.44;;;14.60;64.05
52032;BME280;38044;45.148;39.604;2023-03-19T11:19:20;101117.06;;;14.65;64.24
52032;BME280;38044;45.148;39.604;2023-03-19T11:24:36;101117.13;;;14.74;63.77
52032;BME280;38044;45.148;39.604;2023-03-19T11:27:02;101012.84;;;14.17;63.05
52032;BME280;38044;45.148;39.604;2023-03-19T11:29:29;101087.28;;;14.51;63.45
52032;BME280;38044;45.148;39.604;2023-03-19T11:35:07;101006.91;;;14.15;62.98
52032;BME280;38044;45.148;39.604;2023-03-19T11:37:55;101095.91;;;14.53;63.65
52032;BME280;38044;45.148;39.604;2023-03-19T11:40:36;101101.59;;;14.66;64.04
52032;BME280;38044;45.148;39.604;2023-03-19T11:49:00;101099.63;;;14.57;64.01
52032;BME280;38044;45.148;39.604;2023-03-19T11:51:50;100990.38;;;13.81;64.43
52032;BME280;38044;45.148;39.604;2023-03-19T11:56:58;101058.09;;;14.12;64.64
52032;BME280;38044;45.148;39.604;2023-03-19T12:11:21;101073.94;;;14.69;64.27
52032;BME280;38044;45.148;39.604;2023-03-19T12:30:48;101028.84;;;14.50;63.50
52032;BME280;38044;45.148;39.604;2023-03-19T12:36:06;101057.13;;;14.44;64.35
52032;BME280;38044;45.148;39.604;2023-03-19T12:38:43;101035.53;;;14.30;64.19
52032;BME280;38044;45.148;39.604;2023-03-19T12:41:27;101072.75;;;14.47;64.52
52032;BME280;38044;45.148;39.604;2023-03-19T12:46:50;101074.16;;;14.58;64.66
52032;BME280;38044;45.148;39.604;2023-03-19T12:49:23;101067.56;;;14.51;64.29
52032;BME280;38044;45.148;39.604;2023-03-19T12:52:05;100926.94;;;13.64;64.19
52032;BME280;38044;45.148;39.604;2023-03-19T12:54:46;101043.16;;;14.28;64.89
52032;BME280;38044;45.148;39.604;2023-03-19T12:57:58;101056.16;;;14.40;65.00
52032;BME280;38044;45.148;39.604;2023-03-19T13:10:59;101041.50;;;14.55;64.00
52032;BME280;38044;45.148;39.604;2023-03-19T13:13:44;101039.84;;;14.68;63.80
52032;BME280;38044;45.148;39.604;2023-03-19T13:21:36;101043.00;;;14.47;64.62
52032;BME280;38044;45.148;39.604;2023-03-19T13:24:06;100917.94;;;13.55;65.04
52032;BME280;38044;45.148;39.604;2023-03-19T13:26:37;101049.72;;;14.36;64.62
52032;BME280;38044;45.148;39.604;2023-03-19T13:29:13;101035.16;;;14.23;65.50
52032;BME280;38044;45.148;39.604;2023-03-19T13:31:40;100908.78;;;13.42;65.41
52032;BME280;38044;45.148;39.604;2023-03-19T13:36:47;101034.16;;;14.19;65.52
52032;BME280;38044;45.148;39.604;2023-03-19T13:39:23;101010.66;;;13.92;65.35
52032;BME280;38044;45.148;39.604;2023-03-19T13:41:56;101031.69;;;13.95;65.19
52032;BME280;38044;45.148;39.604;2023-03-19T13:47:00;101006.66;;;13.62;66.19
52032;BME280;38044;45.148;39.604;2023-03-19T13:49:31;100978.75;;;13.39;66.38
52032;BME280;38044;45.148;39.604;2023-03-19T13:54:39;100895.50;;;12.85;66.37
52032;BME280;38044;45.148;39.604;2023-03-19T13:57:16;101024.59;;;13.71;66.41
52032;BME280;38044;45.148;39.604;2023-03-19T13:59:46;101029.59;;;13.64;66.23
52032;BME280;38044;45.148;39.604;2023-03-19T14:07:41;100878.59;;;12.66;67.28
52032;BME280;38044;45.148;39.604;2023-03-19T14:10:14;100907.91;;;12.87;67.29
52032;BME280;38044;45.148;39.604;2023-03-19T14:12:43;101011.59;;;13.46;67.58
52032;BME280;38044;45.148;39.604;2023-03-19T14:17:38;100918.47;;;12.69;67.86
52032;BME280;38044;45.148;39.604;2023-03-19T14:20:23;101026.19;;;13.45;67.81
52032;BME280;38044;45.148;39.604;2023-03-19T14:23:11;101019.09;;;13.49;68.10
52032;BME280;38044;45.148;39.604;2023-03-19T14:28:40;100863.56;;;12.46;68.09
52032;BME280;38044;45.148;39.604;2023-03-19T14:36:25;100900.34;;;12.56;68.35
52032;BME280;38044;45.148;39.604;2023-03-19T14:38:56;100885.00;;;12.37;68.67
52032;BME280;38044;45.148;39.604;2023-03-19T14:41:25;100976.25;;;12.96;68.78
52032;BME280;38044;45.148;39.604;2023-03-19T14:44:07;101011.97;;;13.25;68.84
52032;BME280;38044;45.148;39.604;2023-03-19T14:53:09;100984.66;;;12.94;69.01
52032;BME280;38044;45.148;39.604;2023-03-19T14:55:14;100994.88;;;12.97;69.05